sensor_id;sensor_type;location;lat;lon;timestamp;pressure;altitude;pressure_sealevel;temperature;humidity
66273;BME280;58450;52.150;4.466;2023-03-12T00:01:12;101064.38;;;3.32;100.00
66273;BME280;58450;52.150;4.466;2023-03-12T00:03:41;101073.19;;;3.33;100.00
66273;BME280;58450;52.150;4.466;2023-03-12T00:06:09;101066.63;;;3.37;100.00
66273;BME280;58450;52.150;4.466;2023-03-12T00:08:37;101069.72;;;3.42;100.00
66273;BME280;58450;52.150;4.466;2023-03-12T00:11:07;101059.09;;;3.42;100.00
66273;BME280;58450;52.150;4.466;2023-03-12T00:13:37;101055.59;;;3.42;100.00
66273;BME280;58450;52.150;4.466;2023-03-12T00:16:07;101061.91;;;3.40;100.00
66273;BME280;58450;52.150;4.466;2023-03-12T00:18:36;101050.66;;;3.37;100.00
66273;BME280;58450;52.150;4.466;2023-03-12T00:21:05;101043.94;;;3.33;100.00
66273;BME280;58450;52.150;4.466;2023-03-12T00:23:33;101041.16;;;3.34;100.00
66273;BME280;58450;52.150;4.466;2023-03-12T00:26:03;101032.75;;;3.29;100.00
66273;BME280;58450;52.150;4.466;2023-03-12T00:28:32;101041.69;;;3.28;100.00
66273;BME280;58450;52.150;4.466;2023-03-12T00:31:03;101027.81;;;3.24;100.00
66273;BME280;58450;52.150;4.466;2023-03-12T00:33:39;101030.34;;;3.26;100.00
66273;BME280;58450;52.150;4.466;2023-03-12T00:36:07;101026.81;;;3.25;100.00
66273;BME280;58450;52.150;4.466;2023-03-12T00:38:35;101025.69;;;3.18;100.00
66273;BME280;58450;52.150;4.466;2023-03-12T00:41:03;101029.47;;;3.16;100.00
66273;BME280;58450;52.150;4.466;2023-03-12T00:43:30;101024.00;;;3.17;100.00
66273;BME280;58450;52.150;4.466;2023-03-12T00:45:58;101020.63;;;3.15;100.00
66273;BME280;58450;52.150;4.466;2023-03-12T00:48:27;101017.69;;;3.18;100.00
66273;BME280;58450;52.150;4.466;2023-03-12T00:50:54;101013.63;;;3.14;100.00
66273;BME280;58450;52.150;4.466;2023-03-12T00:53:22;101011.56;;;3.18;100.00
66273;BME280;58450;52.150;4.466;2023-03-12T00:55:49;101007.22;;;3.17;100.00
66273;BME280;58450;52.150;4.466;2023-03-12T00:58:17;101010.69;;;3.17;100.00
66273;BME280;58450;52.150;4.466;2023-03-12T01:00:44;101023.03;;;3.18;100.00
66273;BME280;58450;52.150;4.466;2023-03-12T01:03:12;101024.59;;;3.21;100.00
66273;BME280;58450;52.150;4.466;2023-03-12T01:05:41;101026.38;;;3.20;100.00
66273;BME280;58450;52.150;4.466;2023-03-12T01:08:09;101024.44;;;3.22;100.00
66273;BME280;58450;52.150;4.466;2023-03-12T01:10:41;101020.09;;;3.21;100.00
66273;BME280;58450;52.150;4.466;2023-03-12T01:13:09;101012.97;;;3.22;100.00
66273;BME280;58450;52.150;4.466;2023-03-12T01:15:37;101010.31;;;3.22;100.00
66273;BME280;58450;52.150;4.466;2023-03-12T01:18:04;101013.94;;;3.21;100.00
66273;BME280;58450;52.150;4.466;2023-03-12T01:20:32;101010.31;;;3.22;100.00
66273;BME280;58450;52.150;4.466;2023-03-12T01:23:01;101001.75;;;3.18;100.00
66273;BME280;58450;52.150;4.466;2023-03-12T01:25:29;100998.00;;;3.21;100.00
66273;BME280;58450;52.150;4.466;2023-03-12T01:27:58;100989.88;;;3.22;100.00
66273;BME280;58450;52.150;4.466;2023-03-12T01:30:27;100994.63;;;3.19;100.00
66273;BME280;58450;52.150;4.466;2023-03-12T01:32:55;100993.50;;;3.21;100.00
66273;BME280;58450;52.150;4.466;2023-03-12T01:35:23;100991.00;;;3.20;100.00
66273;BME280;58450;52.150;4.466;2023-03-12T01:37:51;100980.75;;;3.15;100.00
66273;BME280;58450;52.150;4.466;2023-03-12T01:40:23;100983.00;;;3.20;100.00
66273;BME280;58450;52.150;4.466;2023-03-12T01:42:54;100975.84;;;3.20;100.00
66273;BME280;58450;52.150;4.466;2023-03-12T01:45:57;100973.06;;;3.22;100.00
66273;BME280;58450;52.150;4.466;2023-03-12T01:48:33;100964.94;;;3.23;100.00
66273;BME280;58450;52.150;4.466;2023-03-12T01:51:04;100966.63;;;3.24;100.00
66273;BME280;58450;52.150;4.466;2023-03-12T01:53:33;100963.00;;;3.25;100.00
66273;BME280;58450;52.150;4.466;2023-03-12T01:56:04;100959.34;;;3.27;100.00
66273;BME280;58450;52.150;4.466;2023-03-12T01:58:34;100956.16;;;3.23;100.00
66273;BME280;58450;52.150;4.466;2023-03-12T02:01:05;100945.34;;;3.24;100.00
66273;BME280;58450;52.150;4.466;2023-03-12T02:03:33;100943.81;;;3.22;100.00
66273;BME280;58450;52.150;4.466;2023-03-12T02:06:06;100935.25;;;3.18;100.00
66273;BME280;58450;52.150;4.466;2023-03-12T02:08:40;100931.19;;;3.14;100.00
66273;BME280;58450;52.150;4.466;2023-03-12T02:11:11;100923.38;;;3.13;100.00
66273;BME280;58450;52.150;4.466;2023-03-12T02:13:39;100917.59;;;3.07;100.00
66273;BME280;58450;52.150;4.466;2023-03-12T02:16:08;100911.47;;;3.07;100.00
66273;BME280;58450;52.150;4.466;2023-03-12T02:18:35;100895.50;;;3.07;100.00
66273;BME280;58450;52.150;4.466;2023-03-12T02:21:09;100889.59;;;3.03;100.00
66273;BME280;58450;52.150;4.466;2023-03-12T02:23:46;100890.19;;;3.07;100.00
66273;BME280;58450;52.150;4.466;2023-03-12T02:26:24;100894.38;;;3.00;100.00
66273;BME280;58450;52.150;4.466;2023-03-12T02:28:55;100891.72;;;3.00;100.00
66273;BME280;58450;52.150;4.466;2023-03-12T02:31:32;100894.09;;;3.03;100.00
66273;BME280;58450;52.150;4.466;2023-03-12T02:34:04;100890.75;;;3.01;100.00
66273;BME280;58450;52.150;4.466;2023-03-12T02:36:33;100885.41;;;3.01;100.00
66273;BME280;58450;52.150;4.466;2023-03-12T02:39:01;100892.41;;;3.02;100.00
66273;BME280;58450;52.150;4.466;2023-03-12T02:41:32;100889.59;;;3.03;100.00
66273;BME280;58450;52.150;4.466;2023-03-12T02:44:05;100891.28;;;3.04;100.00
66273;BME280;58450;52.150;4.466;2023-03-12T02:46:39;100872.69;;;3.04;100.00
66273;BME280;58450;52.150;4.466;2023-03-12T02:49:09;100873.53;;;3.05;100.00
66273;BME280;58450;52.150;4.466;2023-03-12T02:51:39;100873.94;;;3.10;100.00
66273;BME280;58450;52.150;4.466;2023-03-12T02:54:07;100866.53;;;3.14;100.00
66273;BME280;58450;52.150;4.466;2023-03-12T02:56:36;100869.31;;;3.12;100.00
66273;BME280;58450;52.150;4.466;2023-03-12T02:59:06;100860.09;;;3.16;100.00
66273;BME280;58450;52.150;4.466;2023-03-12T03:01:34;100863.03;;;3.13;100.00
66273;BME280;58450;52.150;4.466;2023-03-12T03:04:03;100861.66;;;3.19;100.00
66273;BME280;58450;52.150;4.466;2023-03-12T03:06:32;100858.13;;;3.18;100.00
66273;BME280;58450;52.150;4.466;2023-03-12T03:09:01;100843.16;;;3.17;100.00
66273;BME280;58450;52.150;4.466;2023-03-12T03:11:29;100833.38;;;3.18;100.00
66273;BME280;58450;52.150;4.466;2023-03-12T03:13:58;100843.16;;;3.17;100.00
66273;BME280;58450;52.150;4.466;2023-03-12T03:16:28;100850.03;;;3.20;100.00
66273;BME280;58450;52.150;4.466;2023-03-12T03:18:56;100840.09;;;3.22;100.00
66273;BME280;58450;52.150;4.466;2023-03-12T03:21:23;100817.69;;;3.24;100.00
66273;BME280;58450;52.150;4.466;2023-03-12T03:23:51;100813.78;;;3.29;100.00
66273;BME280;58450;52.150;4.466;2023-03-12T03:26:21;100810.84;;;3.32;100.00
66273;BME280;58450;52.150;4.466;2023-03-12T03:28:49;100809.84;;;3.33;100.00
66273;BME280;58450;52.150;4.466;2023-03-12T03:31:19;100810.44;;;3.36;100.00
66273;BME280;58450;52.150;4.466;2023-03-12T03:33:49;100808.47;;;3.38;100.00
66273;BME280;58450;52.150;4.466;2023-03-12T03:36:17;100803.97;;;3.39;100.00
66273;BME280;58450;52.150;4.466;2023-03-12T03:38:45;100797.38;;;3.43;100.00
66273;BME280;58450;52.150;4.466;2023-03-12T03:41:16;100788.72;;;3.41;100.00
66273;BME280;58450;52.150;4.466;2023-03-12T03:43:44;100794.72;;;3.43;100.00
66273;BME280;58450;52.150;4.466;2023-03-12T03:46:13;100787.59;;;3.44;100.00
66273;BME280;58450;52.150;4.466;2023-03-12T03:48:42;100780.31;;;3.46;100.00
66273;BME280;58450;52.150;4.466;2023-03-12T03:51:10;100772.91;;;3.39;100.00
66273;BME280;58450;52.150;4.466;2023-03-12T03:53:38;100774.44;;;3.42;100.00
66273;BME280;58450;52.150;4.466;2023-03-12T03:56:06;100759.31;;;3.43;100.00
66273;BME280;58450;52.150;4.466;2023-03-12T03:58:35;100756.94;;;3.39;100.00
66273;BME280;58450;52.150;4.466;2023-03-12T04:01:04;100756.81;;;3.31;100.00
66273;BME280;58450;52.150;4.466;2023-03-12T04:03:32;100761.28;;;3.31;100.00
66273;BME280;58450;52.150;4.466;2023-03-12T04:06:04;100756.53;;;3.24;100.00
66273;BME280;58450;52.150;4.466;2023-03-12T04:08:33;100762.81;;;3.23;100.00
66273;BME280;58450;52.150;4.466;2023-03-12T04:11:06;100770.09;;;3.21;100.00
66273;BME280;58450;52.150;4.466;2023-03-12T04:13:35;100755.56;;;3.16;100.00
66273;BME280;58450;52.150;4.466;2023-03-12T04:16:03;100757.25;;;3.17;100.00
66273;BME280;58450;52.150;4.466;2023-03-12T04:18:31;100758.22;;;3.16;100.00
66273;BME280;58450;52.150;4.466;2023-03-12T04:21:03;100757.53;;;3.14;100.00
66273;BME280;58450;52.150;4.466;2023-03-12T04:23:31;100745.47;;;3.09;100.00
66273;BME280;58450;52.150;4.466;2023-03-12T04:25:58;100749.81;;;3.10;100.00
66273;BME280;58450;52.150;4.466;2023-03-12T04:28:26;100740.88;;;3.12;100.00
66273;BME280;58450;52.150;4.466;2023-03-12T04:30:54;100730.34;;;3.10;100.00
66273;BME280;58450;52.150;4.466;2023-03-12T04:33:24;100723.38;;;3.09;100.00
66273;BME280;58450;52.150;4.466;2023-03-12T04:35:52;100713.03;;;3.06;100.00
66273;BME280;58450;52.150;4.466;2023-03-12T04:38:22;100701.41;;;3.07;100.00
66273;BME280;58450;52.150;4.466;2023-03-12T04:40:56;100703.50;;;3.03;100.00
66273;BME280;58450;52.150;4.466;2023-03-12T04:43:24;100704.47;;;3.02;100.00
66273;BME280;58450;52.150;4.466;2023-03-12T04:45:52;100693.16;;;3.00;100.00
66273;BME280;58450;52.150;4.466;2023-03-12T04:48:20;100685.47;;;2.97;100.00
66273;BME280;58450;52.150;4.466;2023-03-12T04:50:48;100700.88;;;2.93;100.00
66273;BME280;58450;52.150;4.466;2023-03-12T04:53:16;100698.75;;;2.87;100.00
66273;BME280;58450;52.150;4.466;2023-03-12T04:55:45;100698.88;;;2.86;100.00
66273;BME280;58450;52.150;4.466;2023-03-12T04:58:13;100702.53;;;2.85;100.00
66273;BME280;58450;52.150;4.466;2023-03-12T05:00:40;100711.63;;;2.82;100.00
66273;BME280;58450;52.150;4.466;2023-03-12T05:03:08;100708.69;;;2.75;100.00
66273;BME280;58450;52.150;4.466;2023-03-12T05:05:36;100702.94;;;2.70;100.00
66273;BME280;58450;52.150;4.466;2023-03-12T05:08:04;100698.06;;;2.65;100.00
66273;BME280;58450;52.150;4.466;2023-03-12T05:10:32;100695.41;;;2.65;100.00
66273;BME280;58450;52.150;4.466;2023-03-12T05:13:01;100695.13;;;2.69;100.00
66273;BME280;58450;52.150;4.466;2023-03-12T05:15:28;100693.28;;;2.69;100.00
66273;BME280;58450;52.150;4.466;2023-03-12T05:17:56;100696.81;;;2.70;100.00
66273;BME280;58450;52.150;4.466;2023-03-12T05:20:23;100697.78;;;2.69;100.00
66273;BME280;58450;52.150;4.466;2023-03-12T05:22:51;100696.81;;;2.70;100.00
66273;BME280;58450;52.150;4.466;2023-03-12T05:25:18;100693.00;;;2.72;100.00
66273;BME280;58450;52.150;4.466;2023-03-12T05:27:46;100697.50;;;2.72;100.00
66273;BME280;58450;52.150;4.466;2023-03-12T05:30:16;100697.63;;;2.70;100.00
66273;BME280;58450;52.150;4.466;2023-03-12T05:32:44;100695.81;;;2.71;100.00
66273;BME280;58450;52.150;4.466;2023-03-12T05:35:11;100690.22;;;2.74;100.00
66273;BME280;58450;52.150;4.466;2023-03-12T05:37:39;100693.59;;;2.76;100.00
66273;BME280;58450;52.150;4.466;2023-03-12T05:40:09;100688.56;;;2.73;100.00
66273;BME280;58450;52.150;4.466;2023-03-12T05:42:38;100686.88;;;2.72;100.00
66273;BME280;58450;52.150;4.466;2023-03-12T05:45:06;100680.69;;;2.71;100.00
66273;BME280;58450;52.150;4.466;2023-03-12T05:47:36;100693.16;;;2.71;100.00
66273;BME280;58450;52.150;4.466;2023-03-12T05:50:04;100677.63;;;2.66;100.00
66273;BME280;58450;52.150;4.466;2023-03-12T05:52:33;100682.94;;;2.66;100.00
66273;BME280;58450;52.150;4.466;2023-03-12T05:55:00;100675.28;;;2.63;100.00
66273;BME280;58450;52.150;4.466;2023-03-12T05:57:28;100678.63;;;2.65;100.00
66273;BME280;58450;52.150;4.466;2023-03-12T05:59:56;100683.25;;;2.63;100.00
66273;BME280;58450;52.150;4.466;2023-03-12T06:02:23;100684.06;;;2.83;100.00
66273;BME280;58450;52.150;4.466;2023-03-12T06:04:52;100678.75;;;2.93;100.00
66273;BME280;58450;52.150;4.466;2023-03-12T06:07:20;100688.28;;;2.95;100.00
66273;BME280;58450;52.150;4.466;2023-03-12T06:09:47;100678.47;;;2.96;100.00
66273;BME280;58450;52.150;4.466;2023-03-12T06:12:15;100680.84;;;2.99;100.00
66273;BME280;58450;52.150;4.466;2023-03-12T06:14:42;100679.88;;;2.90;100.00
66273;BME280;58450;52.150;4.466;2023-03-12T06:17:10;100675.78;;;3.16;100.00
66273;BME280;58450;52.150;4.466;2023-03-12T06:19:38;100664.88;;;3.19;100.00
66273;BME280;58450;52.150;4.466;2023-03-12T06:22:06;100661.22;;;3.20;100.00
66273;BME280;58450;52.150;4.466;2023-03-12T06:24:34;100647.78;;;3.21;100.00
66273;BME280;58450;52.150;4.466;2023-03-12T06:27:02;100647.34;;;3.26;100.00
66273;BME280;58450;52.150;4.466;2023-03-12T06:29:30;100636.03;;;3.24;100.00
66273;BME280;58450;52.150;4.466;2023-03-12T06:31:57;100635.72;;;3.27;100.00
66273;BME280;58450;52.150;4.466;2023-03-12T06:34:25;100643.72;;;3.27;100.00
66273;BME280;58450;52.150;4.466;2023-03-12T06:36:53;100630.25;;;3.38;100.00
66273;BME280;58450;52.150;4.466;2023-03-12T06:39:23;100642.16;;;3.34;100.00
66273;BME280;58450;52.150;4.466;2023-03-12T06:41:51;100635.13;;;3.43;100.00
66273;BME280;58450;52.150;4.466;2023-03-12T06:44:18;100629.25;;;3.39;100.00
66273;BME280;58450;52.150;4.466;2023-03-12T06:46:46;100631.63;;;3.43;100.00
66273;BME280;58450;52.150;4.466;2023-03-12T06:49:13;100624.34;;;3.45;100.00
66273;BME280;58450;52.150;4.466;2023-03-12T06:51:41;100622.78;;;3.42;100.00
66273;BME280;58450;52.150;4.466;2023-03-12T06:54:08;100628.41;;;3.39;100.00
66273;BME280;58450;52.150;4.466;2023-03-12T06:56:38;100629.66;;;3.45;100.00
66273;BME280;58450;52.150;4.466;2023-03-12T06:59:06;100638.75;;;3.42;100.00
66273;BME280;58450;52.150;4.466;2023-03-12T07:01:33;100650.19;;;3.52;100.00
66273;BME280;58450;52.150;4.466;2023-03-12T07:04:01;100641.13;;;3.45;100.00
66273;BME280;58450;52.150;4.466;2023-03-12T07:06:28;100639.97;;;3.58;100.00
66273;BME280;58450;52.150;4.466;2023-03-12T07:08:56;100634.19;;;3.62;100.00
66273;BME280;58450;52.150;4.466;2023-03-12T07:11:23;100635.72;;;3.65;100.00
66273;BME280;58450;52.150;4.466;2023-03-12T07:13:52;100633.97;;;3.83;100.00
66273;BME280;58450;52.150;4.466;2023-03-12T07:16:20;100640.97;;;3.84;100.00
66273;BME280;58450;52.150;4.466;2023-03-12T07:18:48;100646.69;;;3.90;100.00
66273;BME280;58450;52.150;4.466;2023-03-12T07:21:15;100657.13;;;3.73;100.00
66273;BME280;58450;52.150;4.466;2023-03-12T07:23:47;100657.84;;;3.65;100.00
66273;BME280;58450;52.150;4.466;2023-03-12T07:26:15;100651.31;;;3.60;100.00
66273;BME280;58450;52.150;4.466;2023-03-12T07:28:43;100647.78;;;3.59;100.00
66273;BME280;58450;52.150;4.466;2023-03-12T07:31:12;100639.63;;;3.70;100.00
66273;BME280;58450;52.150;4.466;2023-03-12T07:33:39;100634.47;;;3.69;100.00
66273;BME280;58450;52.150;4.466;2023-03-12T07:36:07;100635.94;;;3.81;100.00
66273;BME280;58450;52.150;4.466;2023-03-12T07:38:35;100645.53;;;3.92;100.00
66273;BME280;58450;52.150;4.466;2023-03-12T07:41:03;100653.97;;;3.88;100.00
66273;BME280;58450;52.150;4.466;2023-03-12T07:43:30;100635.34;;;3.88;100.00
66273;BME280;58450;52.150;4.466;2023-03-12T07:45:58;100632.09;;;3.94;100.00
66273;BME280;58450;52.150;4.466;2023-03-12T07:48:27;100662.59;;;3.99;100.00
66273;BME280;58450;52.150;4.466;2023-03-12T07:50:55;100680.59;;;3.88;100.00
66273;BME280;58450;52.150;4.466;2023-03-12T07:53:22;100639.56;;;4.08;100.00
66273;BME280;58450;52.150;4.466;2023-03-12T07:55:50;100662.63;;;4.18;100.00
66273;BME280;58450;52.150;4.466;2023-03-12T07:58:17;100653.34;;;4.22;100.00
66273;BME280;58450;52.150;4.466;2023-03-12T08:00:45;100659.72;;;4.39;100.00
66273;BME280;58450;52.150;4.466;2023-03-12T08:03:12;100658.84;;;4.38;100.00
66273;BME280;58450;52.150;4.466;2023-03-12T08:05:41;100662.16;;;4.68;100.00
66273;BME280;58450;52.150;4.466;2023-03-12T08:08:09;100661.22;;;4.78;100.00
66273;BME280;58450;52.150;4.466;2023-03-12T08:10:36;100667.94;;;4.82;100.00
66273;BME280;58450;52.150;4.466;2023-03-12T08:13:04;100660.34;;;4.95;100.00
66273;BME280;58450;52.150;4.466;2023-03-12T08:15:31;100665.81;;;5.12;100.00
66273;BME280;58450;52.150;4.466;2023-03-12T08:17:59;100657.72;;;5.22;100.00
66273;BME280;58450;52.150;4.466;2023-03-12T08:20:27;100668.09;;;5.33;100.00
66273;BME280;58450;52.150;4.466;2023-03-12T08:22:56;100665.84;;;5.46;100.00
66273;BME280;58450;52.150;4.466;2023-03-12T08:25:23;100672.56;;;5.51;100.00
66273;BME280;58450;52.150;4.466;2023-03-12T08:27:51;100667.94;;;5.61;100.00
66273;BME280;58450;52.150;4.466;2023-03-12T08:30:19;100666.03;;;5.80;100.00
66273;BME280;58450;52.150;4.466;2023-03-12T08:32:47;100677.41;;;5.82;100.00
66273;BME280;58450;52.150;4.466;2023-03-12T08:35:14;100674.94;;;5.97;100.00
66273;BME280;58450;52.150;4.466;2023-03-12T08:37:42;100681.06;;;6.15;100.00
66273;BME280;58450;52.150;4.466;2023-03-12T08:40:12;100680.25;;;6.31;100.00
66273;BME280;58450;52.150;4.466;2023-03-12T08:42:40;100692.16;;;6.37;100.00
66273;BME280;58450;52.150;4.466;2023-03-12T08:45:10;100689.28;;;6.39;100.00
66273;BME280;58450;52.150;4.466;2023-03-12T08:47:39;100683.50;;;6.60;100.00
66273;BME280;58450;52.150;4.466;2023-03-12T08:50:07;100680.03;;;6.92;100.00
66273;BME280;58450;52.150;4.466;2023-03-12T08:52:36;100684.66;;;7.23;100.00
66273;BME280;58450;52.150;4.466;2023-03-12T08:55:04;100675.72;;;7.56;100.00
66273;BME280;58450;52.150;4.466;2023-03-12T08:57:34;100694.34;;;8.06;100.00
66273;BME280;58450;52.150;4.466;2023-03-12T09:00:03;100672.63;;;8.55;100.00
66273;BME280;58450;52.150;4.466;2023-03-12T09:02:36;100678.59;;;8.89;100.00
66273;BME280;58450;52.150;4.466;2023-03-12T09:05:05;100667.47;;;8.92;100.00
66273;BME280;58450;52.150;4.466;2023-03-12T09:07:33;100681.84;;;9.23;100.00
66273;BME280;58450;52.150;4.466;2023-03-12T09:10:00;100676.00;;;9.34;100.00
66273;BME280;58450;52.150;4.466;2023-03-12T09:12:28;100671.34;;;9.28;100.00
66273;BME280;58450;52.150;4.466;2023-03-12T09:14:57;100682.84;;;9.22;100.00
66273;BME280;58450;52.150;4.466;2023-03-12T09:17:25;100690.94;;;9.37;100.00
66273;BME280;58450;52.150;4.466;2023-03-12T09:19:55;100679.41;;;9.28;100.00
66273;BME280;58450;52.150;4.466;2023-03-12T09:22:22;100697.78;;;9.39;100.00
66273;BME280;58450;52.150;4.466;2023-03-12T09:24:50;100689.75;;;9.69;100.00
66273;BME280;58450;52.150;4.466;2023-03-12T09:27:17;100689.56;;;9.56;100.00
66273;BME280;58450;52.150;4.466;2023-03-12T09:29:45;100693.38;;;9.61;100.00
66273;BME280;58450;52.150;4.466;2023-03-12T09:32:15;100695.97;;;9.85;100.00
66273;BME280;58450;52.150;4.466;2023-03-12T09:34:43;100703.72;;;9.95;100.00
66273;BME280;58450;52.150;4.466;2023-03-12T09:37:10;100706.41;;;9.95;100.00
66273;BME280;58450;52.150;4.466;2023-03-12T09:39:38;100702.25;;;10.07;100.00
66273;BME280;58450;52.150;4.466;2023-03-12T09:42:15;100719.38;;;10.21;100.00
66273;BME280;58450;52.150;4.466;2023-03-12T09:44:51;100696.69;;;9.94;100.00
66273;BME280;58450;52.150;4.466;2023-03-12T09:47:26;100714.91;;;10.28;100.00
66273;BME280;58450;52.150;4.466;2023-03-12T09:50:00;100707.50;;;10.45;100.00
66273;BME280;58450;52.150;4.466;2023-03-12T09:52:34;100715.84;;;10.51;100.00
66273;BME280;58450;52.150;4.466;2023-03-12T09:55:07;100689.03;;;10.64;100.00
66273;BME280;58450;52.150;4.466;2023-03-12T09:57:39;100699.81;;;10.86;100.00
66273;BME280;58450;52.150;4.466;2023-03-12T10:00:11;100698.75;;;10.28;100.00
66273;BME280;58450;52.150;4.466;2023-03-12T10:02:58;100702.69;;;10.62;100.00
66273;BME280;58450;52.150;4.466;2023-03-12T10:05:37;100684.59;;;10.19;100.00
66273;BME280;58450;52.150;4.466;2023-03-12T10:08:14;100689.56;;;10.53;100.00
66273;BME280;58450;52.150;4.466;2023-03-12T10:10:52;100708.03;;;10.56;100.00
66273;BME280;58450;52.150;4.466;2023-03-12T10:13:47;100702.81;;;10.54;100.00
66273;BME280;58450;52.150;4.466;2023-03-12T10:16:30;100698.31;;;10.40;100.00
66273;BME280;58450;52.150;4.466;2023-03-12T10:19:20;100717.75;;;10.57;100.00
66273;BME280;58450;52.150;4.466;2023-03-12T10:22:28;100702.41;;;10.20;100.00
66273;BME280;58450;52.150;4.466;2023-03-12T10:25:03;100701.34;;;10.52;100.00
66273;BME280;58450;52.150;4.466;2023-03-12T10:27:42;100710.34;;;10.59;100.00
66273;BME280;58450;52.150;4.466;2023-03-12T10:30:15;100724.28;;;10.47;100.00
66273;BME280;58450;52.150;4.466;2023-03-12T10:32:48;100696.81;;;10.37;100.00
66273;BME280;58450;52.150;4.466;2023-03-12T10:35:21;100706.91;;;10.50;100.00
66273;BME280;58450;52.150;4.466;2023-03-12T10:37:51;100725.69;;;10.65;100.00
66273;BME280;58450;52.150;4.466;2023-03-12T10:40:24;100722.31;;;10.26;100.00
66273;BME280;58450;52.150;4.466;2023-03-12T10:42:54;100719.91;;;10.31;100.00
66273;BME280;58450;52.150;4.466;2023-03-12T10:45:27;100723.44;;;10.32;100.00
66273;BME280;58450;52.150;4.466;2023-03-12T10:48:06;100740.50;;;10.24;100.00
66273;BME280;58450;52.150;4.466;2023-03-12T10:50:39;100715.00;;;10.35;100.00
66273;BME280;58450;52.150;4.466;2023-03-12T10:53:21;100724.41;;;10.61;100.00
66273;BME280;58450;52.150;4.466;2023-03-12T10:56:00;100745.59;;;10.49;100.00
66273;BME280;58450;52.150;4.466;2023-03-12T10:58:35;100742.69;;;10.66;100.00
66273;BME280;58450;52.150;4.466;2023-03-12T11:01:06;100740.31;;;10.56;100.00
66273;BME280;58450;52.150;4.466;2023-03-12T11:03:45;100734.03;;;10.48;100.00
66273;BME280;58450;52.150;4.466;2023-03-12T11:06:21;100760.56;;;10.73;100.00
66273;BME280;58450;52.150;4.466;2023-03-12T11:09:04;100766.38;;;10.55;100.00
66273;BME280;58450;52.150;4.466;2023-03-12T11:11:34;100749.41;;;10.25;100.00
66273;BME280;58450;52.150;4.466;2023-03-12T11:14:05;100735.03;;;10.47;100.00
66273;BME280;58450;52.150;4.466;2023-03-12T11:16:34;100732.31;;;10.62;100.00
66273;BME280;58450;52.150;4.466;2023-03-12T11:19:03;100763.94;;;10.97;100.00
66273;BME280;58450;52.150;4.466;2023-03-12T11:21:34;100749.88;;;10.80;100.00
66273;BME280;58450;52.150;4.466;2023-03-12T11:24:07;100768.16;;;10.48;100.00
66273;BME280;58450;52.150;4.466;2023-03-12T11:26:46;100755.13;;;10.67;100.00
66273;BME280;58450;52.150;4.466;2023-03-12T11:29:25;100758.59;;;10.30;100.00
66273;BME280;58450;52.150;4.466;2023-03-12T11:32:01;100761.56;;;10.51;100.00
66273;BME280;58450;52.150;4.466;2023-03-12T11:34:34;100776.22;;;10.48;100.00
66273;BME280;58450;52.150;4.466;2023-03-12T11:37:10;100731.31;;;10.48;100.00
66273;BME280;58450;52.150;4.466;2023-03-12T11:40:05;100740.03;;;10.51;100.00
66273;BME280;58450;52.150;4.466;2023-03-12T11:43:06;100724.16;;;10.77;100.00
66273;BME280;58450;52.150;4.466;2023-03-12T11:45:53;100722.72;;;10.97;100.00
66273;BME280;58450;52.150;4.466;2023-03-12T11:48:36;100707.25;;;11.34;100.00
66273;BME280;58450;52.150;4.466;2023-03-12T11:51:19;100718.75;;;11.43;100.00
66273;BME280;58450;52.150;4.466;2023-03-12T11:54:17;100712.13;;;11.45;100.00
66273;BME280;58450;52.150;4.466;2023-03-12T11:57:14;100741.91;;;11.15;100.00
66273;BME280;58450;52.150;4.466;2023-03-12T11:59:58;100727.25;;;10.96;100.00
66273;BME280;58450;52.150;4.466;2023-03-12T12:06:05;100710.59;;;11.36;100.00
66273;BME280;58450;52.150;4.466;2023-03-12T12:08:47;100718.25;;;11.61;100.00
66273;BME280;58450;52.150;4.466;2023-03-12T12:11:29;100694.81;;;11.33;100.00
66273;BME280;58450;52.150;4.466;2023-03-12T12:14:14;100693.41;;;12.01;100.00
66273;BME280;58450;52.150;4.466;2023-03-12T12:17:04;100712.13;;;11.17;100.00
66273;BME280;58450;52.150;4.466;2023-03-12T12:19:52;100750.06;;;11.44;100.00
66273;BME280;58450;52.150;4.466;2023-03-12T12:22:41;100738.44;;;11.21;100.00
66273;BME280;58450;52.150;4.466;2023-03-12T12:25:38;100734.56;;;11.24;100.00
66273;BME280;58450;52.150;4.466;2023-03-12T12:28:51;100701.75;;;11.49;100.00
66273;BME280;58450;52.150;4.466;2023-03-12T12:31:35;100696.03;;;11.59;100.00
66273;BME280;58450;52.150;4.466;2023-03-12T12:37:19;100686.53;;;11.63;100.00
66273;BME280;58450;52.150;4.466;2023-03-12T12:39:57;100685.13;;;11.67;100.00
66273;BME280;58450;52.150;4.466;2023-03-12T12:42:37;100685.03;;;11.89;100.00
66273;BME280;58450;52.150;4.466;2023-03-12T12:45:20;100675.78;;;11.70;100.00
66273;BME280;58450;52.150;4.466;2023-03-12T12:47:55;100677.22;;;12.07;100.00
66273;BME280;58450;52.150;4.466;2023-03-12T12:50:30;100678.38;;;11.85;100.00
66273;BME280;58450;52.150;4.466;2023-03-12T12:53:09;100666.09;;;11.82;100.00
66273;BME280;58450;52.150;4.466;2023-03-12T12:55:52;100663.09;;;11.63;100.00
66273;BME280;58450;52.150;4.466;2023-03-12T12:58:42;100669.41;;;11.77;100.00
66273;BME280;58450;52.150;4.466;2023-03-12T13:01:22;100681.66;;;11.45;100.00
66273;BME280;58450;52.150;4.466;2023-03-12T13:03:50;100681.81;;;11.36;100.00
66273;BME280;58450;52.150;4.466;2023-03-12T13:06:27;100668.13;;;11.38;100.00
66273;BME280;58450;52.150;4.466;2023-03-12T13:09:03;100659.84;;;11.75;100.00
66273;BME280;58450;52.150;4.466;2023-03-12T13:11:43;100663.63;;;11.87;100.00
66273;BME280;58450;52.150;4.466;2023-03-12T13:14:21;100673.34;;;12.17;100.00
66273;BME280;58450;52.150;4.466;2023-03-12T13:17:19;100674.69;;;11.99;100.00